sensor_id;sensor_type;location;lat;lon;timestamp;pressure;altitude;pressure_sealevel;temperature;humidity
71889;BME280;59762;49.998;14.858;2022-08-19T00:00:27;96523.94;;;20.50;65.19
71889;BME280;59762;49.998;14.858;2022-08-19T00:03:04;96521.00;;;20.46;65.78
71889;BME280;59762;49.998;14.858;2022-08-19T00:05:30;96523.19;;;20.44;66.04
71889;BME280;59762;49.998;14.858;2022-08-19T00:07:56;96516.28;;;20.38;65.83
71889;BME280;59762;49.998;14.858;2022-08-19T00:10:22;96525.78;;;20.35;66.13
71889;BME280;59762;49.998;14.858;2022-08-19T00:12:50;96518.78;;;20.34;66.53
71889;BME280;59762;49.998;14.858;2022-08-19T00:15:18;96523.38;;;20.34;66.57
71889;BME280;59762;49.998;14.858;2022-08-19T00:17:45;96519.88;;;20.33;66.77
71889;BME280;59762;49.998;14.858;2022-08-19T00:20:13;96524.06;;;20.26;67.08
71889;BME280;59762;49.998;14.858;2022-08-19T00:22:39;96515.16;;;20.25;67.11
71889;BME280;59762;49.998;14.858;2022-08-19T00:25:07;96516.88;;;20.21;67.58
71889;BME280;59762;49.998;14.858;2022-08-19T00:27:33;96522.06;;;20.17;67.77
71889;BME280;59762;49.998;14.858;2022-08-19T00:29:58;96514.56;;;20.14;67.99
71889;BME280;59762;49.998;14.858;2022-08-19T00:32:24;96516.44;;;20.14;68.05
71889;BME280;59762;49.998;14.858;2022-08-19T00:34:51;96515.94;;;20.12;68.54
71889;BME280;59762;49.998;14.858;2022-08-19T00:37:19;96515.75;;;20.08;68.54
71889;BME280;59762;49.998;14.858;2022-08-19T00:39:49;96518.44;;;20.08;69.11
71889;BME280;59762;49.998;14.858;2022-08-19T00:42:18;96520.81;;;19.96;69.44
71889;BME280;59762;49.998;14.858;2022-08-19T00:44:43;96523.69;;;19.86;70.21
71889;BME280;59762;49.998;14.858;2022-08-19T00:47:09;96525.91;;;19.84;70.27
71889;BME280;59762;49.998;14.858;2022-08-19T00:49:47;96514.97;;;19.75;70.63
71889;BME280;59762;49.998;14.858;2022-08-19T00:52:23;96497.97;;;19.75;70.97
71889;BME280;59762;49.998;14.858;2022-08-19T00:54:50;96496.44;;;19.69;71.09
71889;BME280;59762;49.998;14.858;2022-08-19T00:57:24;96494.91;;;19.62;71.59
71889;BME280;59762;49.998;14.858;2022-08-19T00:59:52;96496.06;;;19.56;71.74
71889;BME280;59762;49.998;14.858;2022-08-19T01:02:19;96505.03;;;19.52;72.04
71889;BME280;59762;49.998;14.858;2022-08-19T01:04:45;96505.94;;;19.47;72.01
71889;BME280;59762;49.998;14.858;2022-08-19T01:07:11;96511.94;;;19.44;72.25
71889;BME280;59762;49.998;14.858;2022-08-19T01:09:37;96519.81;;;19.40;72.51
71889;BME280;59762;49.998;14.858;2022-08-19T01:12:03;96529.28;;;19.38;72.81
71889;BME280;59762;49.998;14.858;2022-08-19T01:14:30;96518.56;;;19.33;73.03
71889;BME280;59762;49.998;14.858;2022-08-19T01:16:56;96518.06;;;19.31;73.01
71889;BME280;59762;49.998;14.858;2022-08-19T01:19:31;96518.66;;;19.28;73.49
71889;BME280;59762;49.998;14.858;2022-08-19T01:22:03;96523.25;;;19.27;73.39
71889;BME280;59762;49.998;14.858;2022-08-19T01:24:31;96525.94;;;19.27;73.67
71889;BME280;59762;49.998;14.858;2022-08-19T01:26:57;96523.25;;;19.27;73.62
71889;BME280;59762;49.998;14.858;2022-08-19T01:29:23;96525.94;;;19.27;73.79
71889;BME280;59762;49.998;14.858;2022-08-19T01:31:48;96530.56;;;19.27;73.87
71889;BME280;59762;49.998;14.858;2022-08-19T01:34:18;96534.41;;;19.21;74.14
71889;BME280;59762;49.998;14.858;2022-08-19T01:36:45;96540.91;;;19.20;74.35
71889;BME280;59762;49.998;14.858;2022-08-19T01:39:15;96550.41;;;19.17;74.62
71889;BME280;59762;49.998;14.858;2022-08-19T01:41:41;96555.81;;;19.17;74.48
71889;BME280;59762;49.998;14.858;2022-08-19T01:44:08;96561.19;;;19.17;74.46
71889;BME280;59762;49.998;14.858;2022-08-19T01:46:35;96561.47;;;19.15;74.89
71889;BME280;59762;49.998;14.858;2022-08-19T01:49:03;96558.28;;;19.13;74.86
71889;BME280;59762;49.998;14.858;2022-08-19T01:51:29;96564.97;;;19.16;75.19
71889;BME280;59762;49.998;14.858;2022-08-19T01:53:56;96569.63;;;19.10;75.21
71889;BME280;59762;49.998;14.858;2022-08-19T01:56:22;96576.72;;;19.06;75.48
71889;BME280;59762;49.998;14.858;2022-08-19T01:58:54;96572.72;;;19.04;75.81
71889;BME280;59762;49.998;14.858;2022-08-19T02:01:21;96582.69;;;19.03;75.82
71889;BME280;59762;49.998;14.858;2022-08-19T02:03:47;96576.78;;;19.01;75.78
71889;BME280;59762;49.998;14.858;2022-08-19T02:06:13;96582.75;;;18.98;76.00
71889;BME280;59762;49.998;14.858;2022-08-19T02:08:39;96567.16;;;18.95;76.40
71889;BME280;59762;49.998;14.858;2022-08-19T02:11:05;96580.41;;;18.92;76.79
71889;BME280;59762;49.998;14.858;2022-08-19T02:13:32;96590.09;;;18.93;76.76
71889;BME280;59762;49.998;14.858;2022-08-19T02:15:57;96585.22;;;18.95;76.58
71889;BME280;59762;49.998;14.858;2022-08-19T02:18:23;96580.13;;;18.93;76.63
71889;BME280;59762;49.998;14.858;2022-08-19T02:20:49;96587.72;;;18.91;76.67
71889;BME280;59762;49.998;14.858;2022-08-19T02:23:16;96582.38;;;18.86;76.90
71889;BME280;59762;49.998;14.858;2022-08-19T02:25:43;96586.16;;;18.85;77.18
71889;BME280;59762;49.998;14.858;2022-08-19T02:28:10;96587.25;;;18.84;76.98
71889;BME280;59762;49.998;14.858;2022-08-19T02:30:37;96585.09;;;18.81;77.16
71889;BME280;59762;49.998;14.858;2022-08-19T02:33:04;96585.09;;;18.81;77.57
71889;BME280;59762;49.998;14.858;2022-08-19T02:35:30;96587.31;;;18.79;77.39
71889;BME280;59762;49.998;14.858;2022-08-19T02:37:56;96584.06;;;18.77;77.64
71889;BME280;59762;49.998;14.858;2022-08-19T02:40:48;96580.38;;;18.73;77.83
71889;BME280;59762;49.998;14.858;2022-08-19T02:43:14;96575.47;;;18.75;77.71
71889;BME280;59762;49.998;14.858;2022-08-19T02:45:41;96583.06;;;18.73;77.97
71889;BME280;59762;49.998;14.858;2022-08-19T02:48:07;96582.47;;;18.76;78.20
71889;BME280;59762;49.998;14.858;2022-08-19T02:50:37;96577.69;;;18.73;78.21
71889;BME280;59762;49.998;14.858;2022-08-19T02:53:04;96578.41;;;18.78;78.24
71889;BME280;59762;49.998;14.858;2022-08-19T02:55:30;96575.78;;;18.73;78.22
71889;BME280;59762;49.998;14.858;2022-08-19T02:57:55;96581.38;;;18.77;78.72
71889;BME280;59762;49.998;14.858;2022-08-19T03:00:22;96600.25;;;18.77;78.45
71889;BME280;59762;49.998;14.858;2022-08-19T03:02:49;96605.97;;;18.75;78.49
71889;BME280;59762;49.998;14.858;2022-08-19T03:05:15;96608.97;;;18.69;78.94
71889;BME280;59762;49.998;14.858;2022-08-19T03:07:41;96611.66;;;18.74;78.70
71889;BME280;59762;49.998;14.858;2022-08-19T03:10:07;96618.13;;;18.73;79.00
71889;BME280;59762;49.998;14.858;2022-08-19T03:12:36;96623.81;;;18.71;79.08
71889;BME280;59762;49.998;14.858;2022-08-19T03:15:04;96624.34;;;18.68;79.45
71889;BME280;59762;49.998;14.858;2022-08-19T03:17:30;96629.72;;;18.68;79.42
71889;BME280;59762;49.998;14.858;2022-08-19T03:19:56;96638.69;;;18.63;79.31
71889;BME280;59762;49.998;14.858;2022-08-19T03:22:21;96652.16;;;18.63;79.63
71889;BME280;59762;49.998;14.858;2022-08-19T03:24:47;96640.63;;;18.58;79.70
71889;BME280;59762;49.998;14.858;2022-08-19T03:27:12;96641.19;;;18.55;79.69
71889;BME280;59762;49.998;14.858;2022-08-19T03:29:39;96636.38;;;18.52;79.91
71889;BME280;59762;49.998;14.858;2022-08-19T03:32:06;96634.50;;;18.52;80.24
71889;BME280;59762;49.998;14.858;2022-08-19T03:34:33;96631.06;;;18.47;80.31
71889;BME280;59762;49.998;14.858;2022-08-19T03:37:05;96637.25;;;18.47;80.45
71889;BME280;59762;49.998;14.858;2022-08-19T03:39:31;96635.34;;;18.48;80.31
71889;BME280;59762;49.998;14.858;2022-08-19T03:41:57;96635.41;;;18.43;80.55
71889;BME280;59762;49.998;14.858;2022-08-19T03:44:23;96634.38;;;18.38;80.46
71889;BME280;59762;49.998;14.858;2022-08-19T03:46:56;96636.81;;;18.35;80.80
71889;BME280;59762;49.998;14.858;2022-08-19T03:49:25;96637.72;;;18.25;80.86
71889;BME280;59762;49.998;14.858;2022-08-19T03:51:53;96633.72;;;18.18;81.46
71889;BME280;59762;49.998;14.858;2022-08-19T03:54:21;96633.78;;;18.12;81.59
71889;BME280;59762;49.998;14.858;2022-08-19T03:56:50;96628.94;;;18.09;81.35
71889;BME280;59762;49.998;14.858;2022-08-19T03:59:23;96623.03;;;18.07;81.62
71889;BME280;59762;49.998;14.858;2022-08-19T04:01:51;96621.94;;;18.08;81.50
71889;BME280;59762;49.998;14.858;2022-08-19T04:04:16;96619.81;;;18.05;81.64
71889;BME280;59762;49.998;14.858;2022-08-19T04:06:43;96619.31;;;18.03;81.73
71889;BME280;59762;49.998;14.858;2022-08-19T04:09:10;96626.84;;;18.01;81.63
71889;BME280;59762;49.998;14.858;2022-08-19T04:11:43;96628.47;;;18.02;81.61
71889;BME280;59762;49.998;14.858;2022-08-19T04:14:14;96634.38;;;18.04;81.90
71889;BME280;59762;49.998;14.858;2022-08-19T04:16:40;96631.69;;;18.04;81.93
71889;BME280;59762;49.998;14.858;2022-08-19T04:19:06;96626.25;;;18.09;81.71
71889;BME280;59762;49.998;14.858;2022-08-19T04:21:32;96643.19;;;18.15;81.70
71889;BME280;59762;49.998;14.858;2022-08-19T04:23:58;96644.75;;;18.21;81.42
71889;BME280;59762;49.998;14.858;2022-08-19T04:26:30;96642.56;;;18.28;81.42
71889;BME280;59762;49.998;14.858;2022-08-19T04:29:01;96654.84;;;18.39;81.04
71889;BME280;59762;49.998;14.858;2022-08-19T04:31:29;96663.63;;;18.50;80.60
71889;BME280;59762;49.998;14.858;2022-08-19T04:33:59;96667.78;;;18.66;79.64
71889;BME280;59762;49.998;14.858;2022-08-19T04:36:30;96664.69;;;18.83;79.10
71889;BME280;59762;49.998;14.858;2022-08-19T04:38:58;96677.09;;;19.08;78.36
71889;BME280;59762;49.998;14.858;2022-08-19T04:41:24;96691.69;;;19.31;77.42
71889;BME280;59762;49.998;14.858;2022-08-19T04:44:10;96690.16;;;19.44;76.70
71889;BME280;59762;49.998;14.858;2022-08-19T04:46:36;96690.22;;;19.63;76.17
71889;BME280;59762;49.998;14.858;2022-08-19T04:49:03;96686.41;;;19.83;74.98
71889;BME280;59762;49.998;14.858;2022-08-19T04:51:34;96685.97;;;20.13;74.18
71889;BME280;59762;49.998;14.858;2022-08-19T04:54:03;96688.28;;;20.39;73.54
71889;BME280;59762;49.998;14.858;2022-08-19T04:56:29;96678.13;;;20.50;72.84
71889;BME280;59762;49.998;14.858;2022-08-19T04:58:56;96685.34;;;20.54;72.85
71889;BME280;59762;49.998;14.858;2022-08-19T05:01:27;96689.50;;;20.79;71.77
71889;BME280;59762;49.998;14.858;2022-08-19T05:03:54;96689.81;;;21.05;70.89
71889;BME280;59762;49.998;14.858;2022-08-19T05:06:21;96695.94;;;21.11;70.64
71889;BME280;59762;49.998;14.858;2022-08-19T05:08:48;96710.28;;;21.11;70.69
71889;BME280;59762;49.998;14.858;2022-08-19T05:13:44;96714.31;;;21.14;70.45
71889;BME280;59762;49.998;14.858;2022-08-19T05:16:11;96718.31;;;21.16;70.11
71889;BME280;59762;49.998;14.858;2022-08-19T05:18:37;96720.13;;;21.21;70.17
71889;BME280;59762;49.998;14.858;2022-08-19T05:21:21;96728.38;;;21.30;70.11
71889;BME280;59762;49.998;14.858;2022-08-19T05:24:06;96723.75;;;21.16;70.25
71889;BME280;59762;49.998;14.858;2022-08-19T05:26:39;96722.44;;;21.14;70.39
71889;BME280;59762;49.998;14.858;2022-08-19T05:29:07;96731.34;;;21.14;70.11
71889;BME280;59762;49.998;14.858;2022-08-19T05:31:34;96741.88;;;21.16;71.02
71889;BME280;59762;49.998;14.858;2022-08-19T05:34:01;96735.66;;;21.15;70.69
71889;BME280;59762;49.998;14.858;2022-08-19T05:36:28;96736.78;;;21.28;69.99
71889;BME280;59762;49.998;14.858;2022-08-19T05:38:54;96743.63;;;21.53;69.10
71889;BME280;59762;49.998;14.858;2022-08-19T05:41:21;96758.03;;;21.90;68.05
71889;BME280;59762;49.998;14.858;2022-08-19T05:43:55;96756.34;;;22.30;66.93
71889;BME280;59762;49.998;14.858;2022-08-19T05:46:21;96754.63;;;22.79;65.95
71889;BME280;59762;49.998;14.858;2022-08-19T05:48:47;96751.00;;;23.37;64.52
71889;BME280;59762;49.998;14.858;2022-08-19T05:51:14;96758.97;;;23.74;61.95
71889;BME280;59762;49.998;14.858;2022-08-19T05:53:42;96777.25;;;23.82;62.09
71889;BME280;59762;49.998;14.858;2022-08-19T05:56:10;96786.34;;;23.95;62.67
71889;BME280;59762;49.998;14.858;2022-08-19T05:58:37;96798.75;;;24.18;60.68
71889;BME280;59762;49.998;14.858;2022-08-19T06:01:04;96798.59;;;24.32;60.43
71889;BME280;59762;49.998;14.858;2022-08-19T06:03:34;96798.91;;;24.22;61.25
71889;BME280;59762;49.998;14.858;2022-08-19T06:06:00;96801.66;;;24.39;60.97
71889;BME280;59762;49.998;14.858;2022-08-19T06:08:28;96810.31;;;24.41;61.26
71889;BME280;59762;49.998;14.858;2022-08-19T06:10:54;96813.00;;;24.24;61.43
71889;BME280;59762;49.998;14.858;2022-08-19T06:13:20;96813.44;;;24.17;61.52
71889;BME280;59762;49.998;14.858;2022-08-19T06:15:46;96821.41;;;23.56;61.76
71889;BME280;59762;49.998;14.858;2022-08-19T06:18:13;96824.38;;;23.46;62.28
71889;BME280;59762;49.998;14.858;2022-08-19T06:20:39;96819.00;;;23.24;63.57
71889;BME280;59762;49.998;14.858;2022-08-19T06:23:05;96821.31;;;23.08;63.59
71889;BME280;59762;49.998;14.858;2022-08-19T06:25:31;96826.16;;;22.75;64.81
71889;BME280;59762;49.998;14.858;2022-08-19T06:27:56;96833.44;;;22.65;66.52
71889;BME280;59762;49.998;14.858;2022-08-19T06:30:22;96841.00;;;22.91;65.98
71889;BME280;59762;49.998;14.858;2022-08-19T06:32:48;96840.56;;;22.61;65.73
71889;BME280;59762;49.998;14.858;2022-08-19T06:35:14;96849.78;;;22.38;65.35
71889;BME280;59762;49.998;14.858;2022-08-19T06:37:40;96846.78;;;22.39;66.66
71889;BME280;59762;49.998;14.858;2022-08-19T06:40:07;96856.47;;;22.18;67.11
71889;BME280;59762;49.998;14.858;2022-08-19T06:42:34;96863.97;;;22.07;67.28
71889;BME280;59762;49.998;14.858;2022-08-19T06:45:01;96866.19;;;22.33;68.39
71889;BME280;59762;49.998;14.858;2022-08-19T06:47:29;96863.00;;;22.53;67.41
71889;BME280;59762;49.998;14.858;2022-08-19T06:49:57;96860.66;;;22.74;66.85
71889;BME280;59762;49.998;14.858;2022-08-19T06:52:29;96872.25;;;22.88;66.30
71889;BME280;59762;49.998;14.858;2022-08-19T06:54:55;96882.66;;;23.09;65.12
71889;BME280;59762;49.998;14.858;2022-08-19T06:57:22;96877.28;;;23.17;65.05
71889;BME280;59762;49.998;14.858;2022-08-19T06:59:48;96882.59;;;23.23;65.25
71889;BME280;59762;49.998;14.858;2022-08-19T07:02:14;96890.50;;;23.33;64.17
71889;BME280;59762;49.998;14.858;2022-08-19T07:04:39;96872.84;;;23.22;64.35
71889;BME280;59762;49.998;14.858;2022-08-19T07:07:08;96875.44;;;23.27;64.57
71889;BME280;59762;49.998;14.858;2022-08-19T07:09:37;96875.72;;;23.48;63.99
71889;BME280;59762;49.998;14.858;2022-08-19T07:12:05;96880.00;;;23.40;64.44
71889;BME280;59762;49.998;14.858;2022-08-19T07:14:33;96889.50;;;23.51;64.49
71889;BME280;59762;49.998;14.858;2022-08-19T07:17:04;96883.44;;;23.54;63.85
71889;BME280;59762;49.998;14.858;2022-08-19T07:19:31;96878.75;;;23.77;64.17
71889;BME280;59762;49.998;14.858;2022-08-19T07:21:57;96864.66;;;24.06;62.09
71889;BME280;59762;49.998;14.858;2022-08-19T07:24:27;96859.56;;;24.13;61.72
71889;BME280;59762;49.998;14.858;2022-08-19T07:26:56;96857.81;;;24.26;61.97
71889;BME280;59762;49.998;14.858;2022-08-19T07:29:27;96860.03;;;24.15;61.92
71889;BME280;59762;49.998;14.858;2022-08-19T07:31:54;96843.06;;;24.10;61.37
71889;BME280;59762;49.998;14.858;2022-08-19T07:34:24;96829.78;;;24.08;61.37
71889;BME280;59762;49.998;14.858;2022-08-19T07:36:51;96819.22;;;24.15;61.60
71889;BME280;59762;49.998;14.858;2022-08-19T07:39:24;96807.84;;;24.05;62.45
71889;BME280;59762;49.998;14.858;2022-08-19T07:41:49;96783.16;;;23.92;60.93
71889;BME280;59762;49.998;14.858;2022-08-19T07:44:19;96779.75;;;23.70;61.70
71889;BME280;59762;49.998;14.858;2022-08-19T07:46:51;96774.13;;;23.66;63.58
71889;BME280;59762;49.998;14.858;2022-08-19T07:49:18;96777.22;;;23.42;63.12
71889;BME280;59762;49.998;14.858;2022-08-19T07:51:55;96776.06;;;23.34;63.25
71889;BME280;59762;49.998;14.858;2022-08-19T07:54:22;96761.22;;;23.40;64.49
71889;BME280;59762;49.998;14.858;2022-08-19T07:56:49;96753.91;;;23.50;63.58
71889;BME280;59762;49.998;14.858;2022-08-19T07:59:17;96736.72;;;23.32;63.13
71889;BME280;59762;49.998;14.858;2022-08-19T08:01:43;96728.06;;;23.21;63.61
71889;BME280;59762;49.998;14.858;2022-08-19T08:04:09;96707.59;;;23.24;64.21
71889;BME280;59762;49.998;14.858;2022-08-19T08:06:54;96679.13;;;23.12;64.14
71889;BME280;59762;49.998;14.858;2022-08-19T08:09:41;96683.44;;;23.13;64.81
71889;BME280;59762;49.998;14.858;2022-08-19T08:12:13;96704.56;;;23.16;64.08
71889;BME280;59762;49.998;14.858;2022-08-19T08:14:49;96746.06;;;23.48;63.44
71889;BME280;59762;49.998;14.858;2022-08-19T08:17:18;96799.00;;;23.82;65.02
71889;BME280;59762;49.998;14.858;2022-08-19T08:19:45;96820.00;;;24.07;62.91
71889;BME280;59762;49.998;14.858;2022-08-19T08:22:14;96840.66;;;24.08;64.34
71889;BME280;59762;49.998;14.858;2022-08-19T08:25:14;96857.75;;;24.00;63.90
71889;BME280;59762;49.998;14.858;2022-08-19T08:27:43;96855.94;;;23.87;63.08
71889;BME280;59762;49.998;14.858;2022-08-19T08:30:15;96850.91;;;23.72;62.86
71889;BME280;59762;49.998;14.858;2022-08-19T08:32:41;96847.88;;;23.64;63.18
71889;BME280;59762;49.998;14.858;2022-08-19T08:35:10;96851.06;;;23.66;63.31
71889;BME280;59762;49.998;14.858;2022-08-19T08:37:37;96847.44;;;23.80;63.01
71889;BME280;59762;49.998;14.858;2022-08-19T08:40:06;96835.53;;;24.15;61.76
71889;BME280;59762;49.998;14.858;2022-08-19T08:42:34;96827.94;;;24.61;60.11
71889;BME280;59762;49.998;14.858;2022-08-19T08:45:06;96824.06;;;24.88;57.90
71889;BME280;59762;49.998;14.858;2022-08-19T08:47:40;96819.75;;;25.13;56.84
71889;BME280;59762;49.998;14.858;2022-08-19T08:50:18;96830.97;;;25.20;57.23
71889;BME280;59762;49.998;14.858;2022-08-19T08:52:47;96847.00;;;25.13;58.77
71889;BME280;59762;49.998;14.858;2022-08-19T08:55:18;96847.34;;;25.11;58.11
71889;BME280;59762;49.998;14.858;2022-08-19T09:00:20;96849.25;;;24.67;60.40
71889;BME280;59762;49.998;14.858;2022-08-19T09:02:47;96851.97;;;24.67;59.05
71889;BME280;59762;49.998;14.858;2022-08-19T09:05:13;96858.81;;;24.39;60.53
71889;BME280;59762;49.998;14.858;2022-08-19T09:07:57;96855.81;;;24.49;60.52
71889;BME280;59762;49.998;14.858;2022-08-19T09:15:48;96848.06;;;24.34;60.98
71889;BME280;59762;49.998;14.858;2022-08-19T09:18:17;96847.47;;;24.37;61.11
71889;BME280;59762;49.998;14.858;2022-08-19T09:20:43;96858.19;;;24.42;61.05
71889;BME280;59762;49.998;14.858;2022-08-19T09:23:10;96855.31;;;24.47;61.46
71889;BME280;59762;49.998;14.858;2022-08-19T09:25:36;96858.16;;;24.33;60.60
71889;BME280;59762;49.998;14.858;2022-08-19T09:28:02;96854.94;;;24.31;60.31
71889;BME280;59762;49.998;14.858;2022-08-19T09:30:32;96864.88;;;24.27;61.94
71889;BME280;59762;49.998;14.858;2022-08-19T09:32:58;96865.91;;;24.49;62.05
71889;BME280;59762;49.998;14.858;2022-08-19T09:35:26;96854.34;;;24.60;59.77
71889;BME280;59762;49.998;14.858;2022-08-19T09:37:53;96853.25;;;24.70;58.73
71889;BME280;59762;49.998;14.858;2022-08-19T09:40:19;96846.81;;;24.92;59.85
71889;BME280;59762;49.998;14.858;2022-08-19T09:42:45;96851.00;;;24.98;59.26
71889;BME280;59762;49.998;14.858;2022-08-19T09:45:13;96854.19;;;25.17;60.51
71889;BME280;59762;49.998;14.858;2022-08-19T09:47:39;96857.09;;;25.21;56.78
71889;BME280;59762;49.998;14.858;2022-08-19T09:50:07;96855.75;;;25.36;57.38
71889;BME280;59762;49.998;14.858;2022-08-19T09:52:33;96864.94;;;25.14;58.38
71889;BME280;59762;49.998;14.858;2022-08-19T09:55:05;96861.75;;;25.21;58.09
71889;BME280;59762;49.998;14.858;2022-08-19T09:57:31;96865.75;;;24.97;57.32
71889;BME280;59762;49.998;14.858;2022-08-19T09:59:57;96866.53;;;24.63;58.00
71889;BME280;59762;49.998;14.858;2022-08-19T10:02:22;96863.47;;;24.47;60.26
71889;BME280;59762;49.998;14.858;2022-08-19T10:04:48;96861.63;;;24.25;59.75
71889;BME280;59762;49.998;14.858;2022-08-19T10:07:32;96862.00;;;24.32;59.03
71889;BME280;59762;49.998;14.858;2022-08-19T10:09:58;96864.88;;;24.36;59.76
71889;BME280;59762;49.998;14.858;2022-08-19T10:12:24;96869.44;;;24.58;61.21
71889;BME280;59762;49.998;14.858;2022-08-19T10:14:51;96869.28;;;24.63;59.93
71889;BME280;59762;49.998;14.858;2022-08-19T10:17:21;96868.63;;;24.92;58.67
71889;BME280;59762;49.998;14.858;2022-08-19T10:19:47;96863.97;;;25.27;59.96
71889;BME280;59762;49.998;14.858;2022-08-19T10:22:13;96869.84;;;25.55;59.25
71889;BME280;59762;49.998;14.858;2022-08-19T10:24:39;96873.34;;;25.64;56.27
71889;BME280;59762;49.998;14.858;2022-08-19T10:27:05;96865.22;;;25.94;57.84
71889;BME280;59762;49.998;14.858;2022-08-19T10:29:31;96863.88;;;26.09;56.14
71889;BME280;59762;49.998;14.858;2022-08-19T10:31:58;96860.03;;;26.10;53.81
71889;BME280;59762;49.998;14.858;2022-08-19T10:34:28;96866.09;;;25.86;53.49
71889;BME280;59762;49.998;14.858;2022-08-19T10:36:55;96861.94;;;26.09;54.79
71889;BME280;59762;49.998;14.858;2022-08-19T10:39:21;96860.84;;;26.02;54.47
71889;BME280;59762;49.998;14.858;2022-08-19T10:41:47;96865.75;;;25.87;55.19
71889;BME280;59762;49.998;14.858;2022-08-19T10:44:12;96864.38;;;26.02;57.67
71889;BME280;59762;49.998;14.858;2022-08-19T10:46:41;96862.19;;;25.96;56.21
71889;BME280;59762;49.998;14.858;2022-08-19T10:49:09;96876.63;;;25.96;54.71
71889;BME280;59762;49.998;14.858;2022-08-19T10:51:37;96867.88;;;26.11;56.06
71889;BME280;59762;49.998;14.858;2022-08-19T10:54:22;96858.09;;;26.10;55.97
71889;BME280;59762;49.998;14.858;2022-08-19T10:56:48;96862.59;;;26.06;54.72
71889;BME280;59762;49.998;14.858;2022-08-19T10:59:22;96859.38;;;26.13;54.70
71889;BME280;59762;49.998;14.858;2022-08-19T11:01:49;96859.13;;;25.97;55.41
71889;BME280;59762;49.998;14.858;2022-08-19T11:04:15;96855.78;;;25.91;54.17
71889;BME280;59762;49.998;14.858;2022-08-19T11:06:45;96854.53;;;26.48;55.12
71889;BME280;59762;49.998;14.858;2022-08-19T11:09:21;96849.06;;;26.48;53.89
71889;BME280;59762;49.998;14.858;2022-08-19T11:11:50;96847.16;;;26.40;53.18
71889;BME280;59762;49.998;14.858;2022-08-19T11:14:17;96845.66;;;26.51;52.71
71889;BME280;59762;49.998;14.858;2022-08-19T11:16:45;96846.06;;;26.62;54.96
71889;BME280;59762;49.998;14.858;2022-08-19T11:19:11;96845.47;;;26.77;54.34
71889;BME280;59762;49.998;14.858;2022-08-19T11:21:41;96845.66;;;26.51;54.79
71889;BME280;59762;49.998;14.858;2022-08-19T11:24:09;96841.13;;;26.55;55.02
71889;BME280;59762;49.998;14.858;2022-08-19T11:26:36;96844.59;;;26.64;54.77
71889;BME280;59762;49.998;14.858;2022-08-19T11:29:05;96838.69;;;26.62;55.12
71889;BME280;59762;49.998;14.858;2022-08-19T11:31:33;96843.41;;;26.53;53.67
71889;BME280;59762;49.998;14.858;2022-08-19T11:34:03;96837.69;;;26.37;53.61
71889;BME280;59762;49.998;14.858;2022-08-19T11:36:29;96845.06;;;26.46;55.43
71889;BME280;59762;49.998;14.858;2022-08-19T11:38:56;96841.53;;;26.45;52.65
71889;BME280;59762;49.998;14.858;2022-08-19T11:41:23;96841.09;;;26.34;53.37
71889;BME280;59762;49.998;14.858;2022-08-19T11:43:51;96834.59;;;26.69;54.49
71889;BME280;59762;49.998;14.858;2022-08-19T11:46:18;96833.53;;;26.82;53.69
71889;BME280;59762;49.998;14.858;2022-08-19T11:48:43;96831.13;;;26.80;51.92
71889;BME280;59762;49.998;14.858;2022-08-19T11:51:19;96825.28;;;26.70;54.20
71889;BME280;59762;49.998;14.858;2022-08-19T11:53:45;96830.97;;;26.35;53.54
71889;BME280;59762;49.998;14.858;2022-08-19T11:56:11;96833.53;;;26.10;54.45
71889;BME280;59762;49.998;14.858;2022-08-19T11:58:38;96825.81;;;26.33;54.99
71889;BME280;59762;49.998;14.858;2022-08-19T12:01:12;96825.34;;;26.10;54.85
71889;BME280;59762;49.998;14.858;2022-08-19T12:03:39;96831.19;;;26.00;55.55
71889;BME280;59762;49.998;14.858;2022-08-19T12:06:10;96818.38;;;25.92;55.45
71889;BME280;59762;49.998;14.858;2022-08-19T12:08:37;96821.84;;;26.01;56.99
71889;BME280;59762;49.998;14.858;2022-08-19T12:11:04;96817.91;;;25.90;55.91
71889;BME280;59762;49.998;14.858;2022-08-19T12:13:30;96816.41;;;26.01;57.57
71889;BME280;59762;49.998;14.858;2022-08-19T12:15:56;96819.66;;;25.95;54.78
71889;BME280;59762;49.998;14.858;2022-08-19T12:18:22;96819.78;;;25.98;55.14
71889;BME280;59762;49.998;14.858;2022-08-19T12:20:50;96818.63;;;26.08;54.09
71889;BME280;59762;49.998;14.858;2022-08-19T12:23:17;96811.59;;;26.28;56.07
71889;BME280;59762;49.998;14.858;2022-08-19T12:25:45;96806.31;;;26.23;54.03
71889;BME280;59762;49.998;14.858;2022-08-19T12:28:21;96809.72;;;26.40;54.06
71889;BME280;59762;49.998;14.858;2022-08-19T12:30:48;96808.28;;;26.85;54.47
71889;BME280;59762;49.998;14.858;2022-08-19T12:33:17;96809.00;;;26.94;53.96
71889;BME280;59762;49.998;14.858;2022-08-19T12:35:44;96806.69;;;26.84;51.33
71889;BME280;59762;49.998;14.858;2022-08-19T12:38:10;96803.16;;;26.83;53.27
71889;BME280;59762;49.998;14.858;2022-08-19T12:40:36;96804.09;;;26.87;55.07
71889;BME280;59762;49.998;14.858;2022-08-19T12:43:02;96809.63;;;26.79;53.10
71889;BME280;59762;49.998;14.858;2022-08-19T12:45:27;96803.44;;;26.70;51.69
71889;BME280;59762;49.998;14.858;2022-08-19T12:47:53;96809.94;;;26.77;53.53
71889;BME280;59762;49.998;14.858;2022-08-19T12:50:19;96805.34;;;26.69;54.21
71889;BME280;59762;49.998;14.858;2022-08-19T12:52:47;96810.72;;;26.99;53.90
71889;BME280;59762;49.998;14.858;2022-08-19T12:55:13;96794.47;;;26.81;52.83
71889;BME280;59762;49.998;14.858;2022-08-19T12:57:39;96793.03;;;26.63;52.76
71889;BME280;59762;49.998;14.858;2022-08-19T13:00:06;96802.22;;;26.58;53.75
71889;BME280;59762;49.998;14.858;2022-08-19T13:02:36;96796.63;;;26.76;55.79
71889;BME280;59762;49.998;14.858;2022-08-19T13:05:02;96791.97;;;26.55;54.38